Time;durP1;ratioP1;P1;durP2;ratioP2;P2;SDS_P1;SDS_P2;PMS_P1;PMS_P2;Temp;Humidity;BMP_temperature;BMP_pressure;BME280_temperature;BME280_humidity;BME280_pressure;Samples;Min_cycle;Max_cycle;Signal;HPM_P1;HPM_P2
2022/08/18 00:02:29;;;;;;;6.95;6.35;;;;;;;21.99;57.59;97581.63;5026781;28;20546;-86
2022/08/18 00:04:57;;;;;;;6.68;6.03;;;;;;;21.96;57.98;97569.66;5053472;28;20094;-86
2022/08/18 00:07:31;;;;;;;6.25;5.70;;;;;;;22.08;57.49;97578.03;5054310;28;20048;-86
2022/08/18 00:10:00;;;;;;;7.30;5.88;;;;;;;21.93;57.54;97572.88;5054647;28;20549;-86
2022/08/18 00:12:40;;;;;;;6.40;5.80;;;;;;;22.03;57.93;97572.75;5061425;28;20049;-86
2022/08/18 00:15:12;;;;;;;6.68;6.07;;;;;;;22.01;57.85;97561.59;5034034;28;20045;-86
2022/08/18 00:17:39;;;;;;;6.20;5.70;;;;;;;22.06;57.99;97580.19;5036416;28;20095;-86
2022/08/18 00:20:13;;;;;;;6.40;5.90;;;;;;;22.03;58.28;97572.75;5034100;28;20091;-85
2022/08/18 00:22:40;;;;;;;6.82;6.30;;;;;;;21.90;58.35;97555.56;5032822;28;20050;-86
2022/08/18 00:25:09;;;;;;;5.85;5.32;;;;;;;21.90;58.07;97570.78;5034180;28;20092;-85
2022/08/18 00:27:38;;;;;;;8.35;5.95;;;;;;;21.96;58.72;97591.00;5034194;28;20131;-86
2022/08/18 00:30:12;;;;;;;6.05;5.55;;;;;;;21.91;58.10;97615.09;5032284;28;20056;-83
2022/08/18 00:32:44;;;;;;;8.30;7.10;;;;;;;21.73;56.82;97655.88;5034659;28;20087;-85
2022/08/18 00:35:25;;;;;;;7.82;5.88;;;;;;;21.62;56.31;97647.16;5043978;28;20042;-85
2022/08/18 00:37:59;;;;;;;7.28;5.65;;;;;;;21.74;54.76;97654.78;5034391;28;20059;-92
2022/08/18 00:40:32;;;;;;;5.97;5.40;;;;;;;21.87;53.64;97648.78;5037501;28;20049;-87
2022/08/18 00:43:06;;;;;;;6.35;4.97;;;;;;;22.15;52.43;97634.59;5034105;28;20550;-86
2022/08/18 00:45:39;;;;;;;4.78;4.38;;;;;;;22.23;52.72;97637.72;5051095;28;20041;-89
2022/08/18 00:48:09;;;;;;;7.70;4.20;;;;;;;22.36;51.44;97639.69;5034182;28;20052;-88
2022/08/18 00:50:55;;;;;;;4.70;4.18;;;;;;;22.57;51.27;97659.72;5033605;28;20700;-85
2022/08/18 00:53:48;;;;;;;4.57;3.95;;;;;;;22.64;51.02;97670.84;5055494;28;20057;-85
2022/08/18 00:56:29;;;;;;;4.10;3.70;;;;;;;22.75;50.48;97665.38;5040804;28;20045;-85
2022/08/18 00:59:08;;;;;;;5.07;3.75;;;;;;;22.89;50.68;97671.59;5039825;28;20041;-88
2022/08/18 01:01:35;;;;;;;6.53;4.47;;;;;;;23.03;48.56;97661.78;5041174;28;20087;-90
2022/08/18 01:04:21;;;;;;;4.63;4.22;;;;;;;23.16;48.08;97650.34;5069696;28;20194;-88
2022/08/18 01:07:07;;;;;;;5.00;4.20;;;;;;;23.32;47.55;97658.09;5048911;28;20107;-90
2022/08/18 01:09:34;;;;;;;4.65;3.72;;;;;;;23.40;47.56;97663.59;5039210;28;20492;-89
2022/08/18 01:12:01;;;;;;;5.00;4.13;;;;;;;23.36;48.03;97680.53;5060294;28;20045;-87
2022/08/18 01:14:47;;;;;;;4.38;3.90;;;;;;;23.36;47.74;97689.34;5030147;28;20041;-85
2022/08/18 01:22:48;;;;;;;4.10;3.70;;;;;;;23.56;47.60;97706.16;5033701;28;20053;-89
2022/08/18 01:28:06;;;;;;;4.82;4.30;;;;;;;23.54;47.84;97698.44;5045853;28;20493;-91
2022/08/18 01:30:48;;;;;;;4.75;4.30;;;;;;;23.59;47.63;97701.03;5032019;28;20042;-86
2022/08/18 01:33:21;;;;;;;5.57;3.88;;;;;;;23.53;47.96;97701.41;5032578;28;20401;-94
2022/08/18 01:35:56;;;;;;;4.50;3.75;;;;;;;23.50;48.22;97702.75;5050711;28;20492;-89
2022/08/18 01:38:23;;;;;;;5.13;3.90;;;;;;;23.55;48.51;97705.38;5032960;28;20053;-87
2022/08/18 01:40:51;;;;;;;4.60;4.20;;;;;;;23.53;49.16;97710.22;5032993;28;20481;-86
2022/08/18 01:43:38;;;;;;;5.55;4.05;;;;;;;23.16;57.75;97719.09;5044793;28;20084;-88
2022/08/18 01:46:05;;;;;;;3.90;3.60;;;;;;;22.77;60.19;97724.69;5047422;28;20041;-87
2022/08/18 01:48:38;;;;;;;4.10;3.80;;;;;;;22.39;61.58;97724.63;5032245;28;20140;-86
2022/08/18 01:51:08;;;;;;;9.07;4.68;;;;;;;22.06;60.49;97724.38;5038415;28;20045;-87
2022/08/18 01:53:36;;;;;;;5.23;4.47;;;;;;;21.71;67.58;97730.06;5031725;28;20053;-88
2022/08/18 01:56:05;;;;;;;6.32;4.18;;;;;;;21.49;70.52;97731.31;5030470;28;20335;-85
2022/08/18 01:58:34;;;;;;;4.00;3.70;;;;;;;21.37;71.33;97736.22;5045633;28;20045;-85
2022/08/18 02:01:03;;;;;;;5.15;4.75;;;;;;;21.11;67.75;97730.19;5043152;28;20049;-85
2022/08/18 02:03:35;;;;;;;5.63;5.13;;;;;;;20.93;67.28;97739.66;5031858;28;20045;-86
2022/08/18 02:06:09;;;;;;;5.13;4.60;;;;;;;20.85;68.17;97749.00;5041393;28;20076;-85
2022/08/18 02:08:40;;;;;;;5.40;4.53;;;;;;;20.79;67.40;97738.66;5064051;28;20059;-87
2022/08/18 02:11:11;;;;;;;4.40;4.00;;;;;;;20.85;68.57;97749.00;5048391;28;20070;-85
2022/08/18 02:13:39;;;;;;;5.88;4.80;;;;;;;20.74;68.17;97734.13;5041732;28;20091;-85
2022/08/18 02:16:06;;;;;;;7.00;5.40;;;;;;;20.66;69.25;97731.25;5046547;28;20049;-85
2022/08/18 02:18:36;;;;;;;5.50;5.00;;;;;;;20.63;70.38;97726.47;5043611;28;20188;-88
2022/08/18 02:21:17;;;;;;;5.88;5.28;;;;;;;20.54;71.22;97716.38;5050469;28;20068;-86
2022/08/18 02:23:46;;;;;;;5.55;5.05;;;;;;;20.49;70.99;97724.41;5050530;28;20060;-85
2022/08/18 02:26:19;;;;;;;6.55;5.60;;;;;;;20.42;73.20;97705.22;5049381;28;20043;-88
2022/08/18 02:28:46;;;;;;;5.78;5.28;;;;;;;20.41;72.51;97718.81;5050250;28;20053;-87
2022/08/18 02:31:19;;;;;;;4.53;4.13;;;;;;;20.49;75.62;97712.94;5049946;28;20547;-87
2022/08/18 02:33:46;;;;;;;4.55;4.10;;;;;;;20.55;76.49;97719.84;5051053;28;20045;-87
2022/08/18 02:36:19;;;;;;;4.55;4.10;;;;;;;20.59;74.27;97712.91;5061793;28;20040;-88
2022/08/18 02:38:46;;;;;;;5.50;5.05;;;;;;;20.47;74.34;97699.91;5050428;28;20554;-87
2022/08/18 02:41:27;;;;;;;5.95;5.45;;;;;;;20.46;74.68;97700.97;5033864;28;20056;-85
2022/08/18 02:43:55;;;;;;;;;;;;;;;20.40;73.62;97698.59;5031752;28;20694;-85
2022/08/18 02:46:22;;;;;;;6.45;5.90;;;;;;;20.26;75.93;97683.16;5035786;28;19974;-87
2022/08/18 02:48:56;;;;;;;7.97;7.13;;;;;;;20.12;77.40;97681.34;5047107;28;20481;-88
2022/08/18 02:51:23;;;;;;;7.30;6.60;;;;;;;19.95;78.25;97661.16;5030783;28;20083;-87
2022/08/18 02:53:52;;;;;;;6.57;5.90;;;;;;;19.88;78.13;97665.19;5032171;28;20057;-87
2022/08/18 02:56:26;;;;;;;6.00;5.18;;;;;;;19.88;78.83;97662.53;5049499;28;20435;-87
2022/08/18 02:59:15;;;;;;;6.22;5.60;;;;;;;19.87;79.05;97659.06;5031299;28;20404;-86
2022/08/18 03:01:47;;;;;;;5.47;4.97;;;;;;;19.86;79.29;97659.34;5049536;28;20469;-85
2022/08/18 03:04:21;;;;;;;6.20;5.40;;;;;;;19.76;77.91;97657.50;5051782;28;20053;-86
2022/08/18 03:06:57;;;;;;;6.25;5.65;;;;;;;19.75;78.33;97650.59;5030252;28;20037;-87
2022/08/18 03:09:25;;;;;;;5.63;5.13;;;;;;;19.71;78.72;97654.84;5029587;28;20057;-87
2022/08/18 03:11:52;;;;;;;5.10;4.60;;;;;;;19.70;77.90;97638.06;5031297;28;20041;-87
2022/08/18 03:14:19;;;;;;;6.35;5.75;;;;;;;19.78;80.02;97647.38;5039692;28;20454;-86
2022/08/18 03:16:47;;;;;;;5.18;4.78;;;;;;;19.74;80.14;97639.16;5042833;28;20041;-87
2022/08/18 03:19:27;;;;;;;7.57;6.55;;;;;;;19.70;79.99;97632.75;5029560;28;20045;-85
2022/08/18 03:21:58;;;;;;;6.85;5.88;;;;;;;19.65;80.99;97634.63;5041061;28;20045;-87
2022/08/18 03:24:30;;;;;;;6.90;6.03;;;;;;;19.67;79.78;97651.09;5038592;28;20579;-86
2022/08/18 03:27:00;;;;;;;6.53;5.93;;;;;;;19.63;80.42;97647.41;5043088;28;20883;-87
2022/08/18 03:29:27;;;;;;;6.30;5.70;;;;;;;19.58;80.94;97636.75;5044139;28;20095;-84
2022/08/18 03:32:00;;;;;;;6.93;6.00;;;;;;;19.62;81.13;97643.97;5043903;28;20077;-85
2022/08/18 03:34:28;;;;;;;6.80;5.68;;;;;;;19.62;81.57;97640.50;5044220;28;20439;-84
2022/08/18 03:36:54;;;;;;;5.63;5.07;;;;;;;19.69;80.66;97641.81;5030563;28;20038;-84
2022/08/18 03:39:22;;;;;;;6.47;5.40;;;;;;;19.77;81.28;97635.94;5039246;28;20046;-85
2022/08/18 03:41:53;;;;;;;6.13;5.22;;;;;;;19.87;81.56;97642.31;5050633;28;20045;-85
2022/08/18 03:44:32;;;;;;;5.80;5.30;;;;;;;19.83;80.86;97636.72;5050830;28;20052;-84
2022/08/18 03:47:03;;;;;;;5.78;5.28;;;;;;;19.83;80.84;97626.06;5034459;28;20045;-85
2022/08/18 03:49:32;;;;;;;;;;;;;;;19.88;80.65;97634.03;5048311;28;20049;-85
2022/08/18 03:52:00;;;;;;;6.20;5.60;;;;;;;19.88;80.87;97628.72;5042867;28;20271;-85
2022/08/18 03:54:30;;;;;;;8.00;6.05;;;;;;;19.80;80.72;97615.97;5047095;28;20076;-85
2022/08/18 03:56:59;;;;;;;5.82;5.22;;;;;;;19.82;80.11;97603.19;5050531;28;20465;-85
2022/08/18 03:59:27;;;;;;;5.40;4.40;;;;;;;19.93;81.52;97607.41;5050571;28;20194;-85
2022/08/18 04:01:54;;;;;;;6.93;6.10;;;;;;;19.93;81.31;97604.75;5032878;28;20091;-85
2022/08/18 04:04:26;;;;;;;7.20;6.53;;;;;;;19.85;81.02;97597.34;5062584;28;20050;-86
2022/08/18 04:07:05;;;;;;;5.80;5.30;;;;;;;19.83;80.51;97602.13;5033811;28;20045;-85
2022/08/18 04:09:35;;;;;;;5.53;5.03;;;;;;;19.90;80.77;97599.16;5035887;28;20049;-85
2022/08/18 04:12:10;;;;;;;6.25;5.72;;;;;;;19.89;80.23;97605.56;5034298;28;20057;-86
2022/08/18 04:14:47;;;;;;;6.45;5.50;;;;;;;19.96;80.69;97598.09;5039919;28;20485;-85
2022/08/18 04:17:23;;;;;;;5.03;4.63;;;;;;;20.02;80.37;97611.09;5048885;28;20055;-84
2022/08/18 04:19:53;;;;;;;5.38;4.85;;;;;;;20.13;80.50;97613.72;5034253;28;20432;-84
2022/08/18 04:22:21;;;;;;;5.40;4.88;;;;;;;20.17;79.95;97620.09;5036670;28;20053;-85
2022/08/18 04:24:51;;;;;;;5.88;5.28;;;;;;;20.27;79.47;97639.50;5032886;28;20504;-85
2022/08/18 04:27:20;;;;;;;5.15;4.53;;;;;;;20.37;78.65;97635.19;5040770;28;20041;-84
2022/08/18 04:29:47;;;;;;;4.95;4.45;;;;;;;20.35;78.61;97638.13;5038532;28;20463;-83
2022/08/18 04:32:14;;;;;;;5.43;4.93;;;;;;;20.41;78.49;97634.38;5033740;28;20041;-86
2022/08/18 04:34:41;;;;;;;6.40;5.80;;;;;;;20.17;78.89;97633.41;5033601;28;20124;-85
2022/08/18 04:37:08;;;;;;;5.80;5.30;;;;;;;20.24;79.20;97647.22;5034888;28;20144;-86
2022/08/18 04:39:36;;;;;;;5.28;4.60;;;;;;;20.22;78.95;97636.88;5038392;28;20435;-86
2022/08/18 04:42:03;;;;;;;5.28;4.78;;;;;;;20.27;78.49;97633.34;5038138;28;20481;-85
2022/08/18 04:44:30;;;;;;;6.03;5.53;;;;;;;20.33;78.60;97650.91;5045180;28;20447;-85
2022/08/18 04:46:59;;;;;;;4.70;4.28;;;;;;;20.31;79.08;97647.72;5041245;28;20041;-84
2022/08/18 04:49:25;;;;;;;4.75;4.35;;;;;;;20.38;78.70;97652.75;5048348;28;20123;-85
2022/08/18 04:55:01;;;;;;;4.93;4.53;;;;;;;20.38;78.28;97669.53;5033490;28;20053;-86
2022/08/18 04:57:30;;;;;;;5.10;4.68;;;;;;;20.45;78.56;97678.09;5062675;28;20036;-85
2022/08/18 04:59:59;;;;;;;5.88;5.38;;;;;;;20.47;78.17;97673.28;5049921;28;20060;-85
2022/08/18 05:02:26;;;;;;;5.57;5.07;;;;;;;20.41;78.69;97663.69;5048864;28;20107;-85
2022/08/18 05:04:53;;;;;;;5.32;4.82;;;;;;;20.54;78.36;97684.41;5033946;28;20048;-83
2022/08/18 05:07:21;;;;;;;4.78;4.38;;;;;;;20.58;78.48;97690.81;5053720;28;20037;-83
2022/08/18 05:09:50;;;;;;;5.25;4.85;;;;;;;20.54;78.33;97700.41;5032461;28;20045;-87
2022/08/18 05:12:17;;;;;;;4.97;4.57;;;;;;;20.58;78.30;97700.66;5033239;28;20493;-84
2022/08/18 05:14:46;;;;;;;4.93;4.53;;;;;;;20.57;78.33;97688.38;5035889;28;20080;-84
2022/08/18 05:17:15;;;;;;;4.82;4.43;;;;;;;20.62;78.89;97691.03;5047366;28;20512;-85
2022/08/18 05:19:43;;;;;;;4.68;4.28;;;;;;;20.53;78.84;97685.50;5048162;28;20099;-84
2022/08/18 05:22:16;;;;;;;5.30;4.82;;;;;;;20.56;78.90;97700.13;5049358;28;20136;-86
2022/08/18 05:24:44;;;;;;;5.35;4.85;;;;;;;20.67;79.21;97714.19;5032914;28;20053;-85
2022/08/18 05:27:12;;;;;;;5.25;4.82;;;;;;;20.56;78.59;97686.78;5052139;28;20041;-86
2022/08/18 05:29:39;;;;;;;6.25;5.65;;;;;;;20.68;78.59;97705.13;5047693;28;20099;-87
2022/08/18 05:32:13;;;;;;;6.72;6.00;;;;;;;20.50;78.61;97702.00;5062934;28;20045;-86
2022/08/18 05:35:29;;;;;;;6.43;5.40;;;;;;;20.55;79.11;97694.00;5048940;28;20053;-86
2022/08/18 05:38:33;;;;;;;8.35;7.47;;;;;;;20.50;79.58;97694.00;5047744;28;20037;-87
2022/08/18 05:41:18;;;;;;;8.88;7.75;;;;;;;20.35;78.87;97688.75;5037145;28;20089;-86
2022/08/18 05:43:47;;;;;;;7.15;6.47;;;;;;;20.44;80.08;97692.41;5032500;28;20642;-85
2022/08/18 05:46:24;;;;;;;6.93;6.32;;;;;;;20.42;79.76;97686.56;5031896;28;20390;-87
2022/08/18 05:48:50;;;;;;;6.57;5.97;;;;;;;20.47;77.37;97683.91;5031962;28;20095;-85
2022/08/18 05:51:39;;;;;;;5.88;5.35;;;;;;;20.61;78.02;97683.31;5032724;28;20041;-86
2022/08/18 05:57:17;;;;;;;6.30;5.72;;;;;;;20.74;79.80;97696.03;5031780;28;20057;-87
2022/08/18 05:59:45;;;;;;;6.18;5.65;;;;;;;20.86;79.33;97696.50;5035429;28;20456;-87
2022/08/18 06:02:50;;;;;;;5.68;5.18;;;;;;;20.89;78.07;97689.84;5037055;28;20052;-86
2022/08/18 06:05:33;;;;;;;7.25;6.55;;;;;;;21.00;78.54;97694.03;5050508;28;20420;-87
2022/08/18 06:08:11;;;;;;;6.13;5.53;;;;;;;21.23;78.74;97696.03;5051749;28;20032;-87
2022/08/18 06:10:44;;;;;;;6.82;5.90;;;;;;;21.25;77.37;97698.41;5047123;28;20102;-86
2022/08/18 06:13:12;;;;;;;6.22;5.63;;;;;;;21.32;77.98;97704.25;5067167;28;20045;-86
2022/08/18 06:16:02;;;;;;;6.60;6.00;;;;;;;21.34;78.18;97715.41;5049768;28;20045;-87
2022/08/18 06:18:47;;;;;;;6.87;6.27;;;;;;;21.45;77.86;97711.59;5031613;28;20088;-87
2022/08/18 06:21:21;;;;;;;7.40;6.70;;;;;;;21.54;77.85;97717.94;5039657;28;20048;-86
2022/08/18 06:24:27;;;;;;;7.25;6.55;;;;;;;21.69;75.12;97714.34;5031447;28;20128;-86
2022/08/18 06:27:39;;;;;;;7.57;6.90;;;;;;;21.74;74.61;97722.31;5035665;28;20450;-86
2022/08/18 06:30:57;;;;;;;7.80;7.00;;;;;;;21.86;73.89;97724.59;5031373;28;20041;-85
2022/08/18 06:33:36;;;;;;;6.55;5.95;;;;;;;21.94;76.62;97731.97;5049994;28;20049;-88
2022/08/18 06:36:13;;;;;;;7.82;5.68;;;;;;;21.87;77.30;97720.84;5050185;28;20080;-88
2022/08/18 06:39:22;;;;;;;6.25;5.63;;;;;;;22.03;77.28;97734.84;5038716;28;20049;-88
2022/08/18 06:41:52;;;;;;;6.57;6.00;;;;;;;22.02;77.05;97726.06;5042921;28;20577;-88
2022/08/18 06:44:37;;;;;;;6.22;5.72;;;;;;;22.12;77.07;97733.19;5051561;28;20037;-89
2022/08/18 06:47:27;;;;;;;7.68;6.03;;;;;;;22.15;77.78;97729.94;5049627;28;20044;-88
2022/08/18 06:50:05;;;;;;;5.60;5.10;;;;;;;22.13;71.57;97735.59;5046431;28;20522;-87
2022/08/18 06:52:35;;;;;;;6.78;6.07;;;;;;;22.28;73.63;97744.50;5046750;28;20080;-88
2022/08/18 06:55:18;;;;;;;7.03;6.28;;;;;;;22.31;73.84;97734.06;5034079;28;20056;-88
2022/08/18 06:57:56;;;;;;;7.03;6.43;;;;;;;22.47;74.02;97733.88;5029218;28;20046;-88
2022/08/18 07:00:28;;;;;;;5.95;5.45;;;;;;;22.69;72.94;97736.81;5033247;28;20113;-89
2022/08/18 07:03:16;;;;;;;9.10;8.30;;;;;;;22.63;69.72;97725.38;5036638;28;20586;-88
2022/08/18 07:06:10;;;;;;;7.30;6.60;;;;;;;22.89;70.63;97722.41;5039968;28;20090;-87
2022/08/18 07:08:44;;;;;;;6.35;5.80;;;;;;;23.08;69.74;97715.19;5044920;28;20040;-86
2022/08/18 07:11:21;;;;;;;6.05;5.50;;;;;;;23.23;69.83;97725.66;5028888;28;20633;-89
2022/08/18 07:13:53;;;;;;;6.13;5.63;;;;;;;23.32;68.84;97728.47;5037020;28;20501;-92
2022/08/18 07:16:41;;;;;;;6.40;5.80;;;;;;;23.41;65.41;97736.66;5036898;28;20055;-92
2022/08/18 07:19:29;;;;;;;7.65;6.95;;;;;;;23.61;68.26;97738.19;5038272;28;20041;-88
2022/08/18 07:22:12;;;;;;;7.20;6.60;;;;;;;23.68;69.24;97735.97;5047375;28;20053;-87
2022/08/18 07:24:43;;;;;;;6.72;6.13;;;;;;;23.84;64.87;97723.13;5030663;28;20072;-86
2022/08/18 07:27:18;;;;;;;6.72;6.13;;;;;;;23.92;65.95;97706.38;5033352;28;20515;-87
2022/08/18 07:30:21;;;;;;;6.57;6.00;;;;;;;24.05;62.95;97697.56;5030769;28;20045;-86
2022/08/18 07:33:03;;;;;;;7.15;6.45;;;;;;;24.06;66.15;97703.72;5032844;28;20096;-85
2022/08/18 07:35:42;;;;;;;7.22;6.55;;;;;;;24.05;62.76;97702.94;5032416;28;20493;-87
2022/08/18 07:39:09;;;;;;;6.45;5.88;;;;;;;24.04;64.91;97701.31;5034402;28;20038;-87
2022/08/18 07:42:16;;;;;;;6.65;6.07;;;;;;;24.03;64.91;97707.78;5037779;28;20045;-88
2022/08/18 07:45:23;;;;;;;7.05;6.35;;;;;;;24.12;66.37;97724.75;5022643;28;20107;-87
2022/08/18 07:48:11;;;;;;;7.05;6.45;;;;;;;24.42;64.79;97746.75;5020179;28;20056;-85
2022/08/18 07:51:42;;;;;;;8.23;7.53;;;;;;;24.54;64.29;97755.88;5034429;28;20041;-86
2022/08/18 07:55:13;;;;;;;6.10;5.55;;;;;;;24.63;65.52;97744.44;5035914;28;20131;-86
2022/08/18 07:58:14;;;;;;;6.22;5.65;;;;;;;24.75;65.73;97742.84;5035327;28;20041;-86
2022/08/18 08:00:57;;;;;;;5.88;5.38;;;;;;;24.90;64.71;97738.25;5037161;28;20041;-88
2022/08/18 08:03:51;;;;;;;8.77;7.95;;;;;;;24.48;61.74;97737.50;5037247;28;20037;-86
2022/08/18 08:06:31;;;;;;;6.63;6.07;;;;;;;24.60;63.57;97735.13;5063695;28;20053;-86
2022/08/18 08:09:21;;;;;;;7.13;6.45;;;;;;;24.63;62.29;97733.72;5034507;28;20045;-86
2022/08/18 08:12:07;;;;;;;;;;;;;;;24.71;61.70;97747.22;5034828;28;20103;-86
2022/08/18 08:14:41;;;;;;;7.30;6.70;;;;;;;24.86;62.58;97748.00;5036703;28;19972;-85
2022/08/18 08:17:43;;;;;;;6.95;6.35;;;;;;;24.92;61.86;97741.44;5040428;28;20075;-86
2022/08/18 08:21:04;;;;;;;5.97;5.47;;;;;;;25.03;61.69;97740.13;5052152;28;20503;-85
2022/08/18 08:24:07;;;;;;;6.75;6.25;;;;;;;24.97;59.97;97741.31;5053827;28;20582;-87
2022/08/18 08:27:22;;;;;;;6.30;5.80;;;;;;;25.00;59.35;97738.03;5054261;28;20404;-89
2022/08/18 08:30:06;;;;;;;6.97;6.38;;;;;;;24.89;60.60;97745.50;5051807;28;20045;-85
2022/08/18 08:32:56;;;;;;;7.32;6.72;;;;;;;24.80;59.95;97726.63;5054445;28;20464;-85
2022/08/18 08:35:42;;;;;;;6.38;5.88;;;;;;;24.88;58.85;97735.06;5053819;28;20044;-85
2022/08/18 08:38:48;;;;;;;7.43;6.82;;;;;;;24.77;58.37;97731.81;5053741;28;20483;-89
2022/08/18 08:41:29;;;;;;;7.93;7.30;;;;;;;24.76;62.43;97731.00;5040373;28;20072;-86
2022/08/18 08:44:14;;;;;;;5.68;5.18;;;;;;;24.97;61.56;97725.22;5033609;28;20049;-86
2022/08/18 08:47:06;;;;;;;6.63;6.13;;;;;;;25.07;58.94;97722.34;5033413;28;20389;-88
2022/08/18 08:50:19;;;;;;;6.43;5.82;;;;;;;25.20;61.15;97724.19;5040614;28;20087;-87
2022/08/18 08:52:58;;;;;;;7.05;6.50;;;;;;;25.31;60.51;97720.19;5030557;28;20049;-85
2022/08/18 08:55:36;;;;;;;7.75;7.05;;;;;;;25.33;56.23;97712.59;5050942;28;20088;-87
2022/08/18 08:58:32;;;;;;;6.65;6.15;;;;;;;25.36;57.91;97711.19;5031756;28;20382;-84
2022/08/18 09:01:01;;;;;;;8.13;7.43;;;;;;;25.30;57.44;97694.41;5037400;28;20103;-85
2022/08/18 09:04:11;;;;;;;7.22;6.60;;;;;;;25.20;58.03;97697.34;5046304;28;20045;-86
2022/08/18 09:07:11;;;;;;;7.20;5.83;;;;;;;25.37;58.94;97702.06;5046381;28;20155;-85
2022/08/18 09:09:52;;;;;;;;;;;;;;;25.50;58.83;97698.53;5053197;28;20048;-86
2022/08/18 09:12:43;;;;;;;5.85;5.38;;;;;;;25.49;56.70;97696.13;5053248;28;19955;-85
2022/08/18 09:15:24;;;;;;;5.80;5.40;;;;;;;25.59;55.57;97693.19;5035839;28;21221;-88
2022/08/18 09:18:03;;;;;;;6.65;6.13;;;;;;;25.70;54.93;97697.22;5035834;28;20099;-86
2022/08/18 09:20:48;;;;;;;7.13;6.50;;;;;;;25.84;54.29;97703.31;5053363;28;20044;-86
2022/08/18 09:23:31;;;;;;;6.07;5.60;;;;;;;25.78;55.51;97696.47;5034935;28;20298;-86
2022/08/18 09:26:38;;;;;;;6.70;6.07;;;;;;;25.63;55.70;97692.28;5059995;28;20052;-87
2022/08/18 09:29:23;;;;;;;5.85;5.35;;;;;;;25.78;56.16;97699.16;5045377;28;20484;-85
2022/08/18 09:32:17;;;;;;;6.13;5.63;;;;;;;25.85;54.56;97693.38;5045851;28;20447;-86
2022/08/18 09:35:06;;;;;;;6.07;5.57;;;;;;;25.79;54.56;97683.84;5034441;28;20037;-84
2022/08/18 09:37:42;;;;;;;6.88;5.00;;;;;;;25.80;54.36;97685.47;5034376;28;20091;-88
2022/08/18 09:43:54;;;;;;;6.18;5.57;;;;;;;25.57;56.13;97665.88;5044157;28;20041;-85
2022/08/18 09:46:53;;;;;;;6.10;5.60;;;;;;;25.75;54.52;97659.50;5048402;28;20746;-85
2022/08/18 09:49:21;;;;;;;6.20;5.70;;;;;;;25.88;54.24;97660.50;5038301;28;20053;-85
2022/08/18 09:52:19;;;;;;;5.93;5.43;;;;;;;25.94;53.68;97658.50;5049363;28;20041;-85
2022/08/18 09:55:14;;;;;;;;;;;;;;;26.16;55.22;97661.09;5031629;28;20060;-84
2022/08/18 09:58:47;;;;;;;6.10;5.50;;;;;;;26.52;51.62;97649.38;5032428;28;19928;-87
2022/08/18 10:01:33;;;;;;;6.20;5.65;;;;;;;26.67;53.03;97646.19;5039813;28;20089;-85
2022/08/18 10:04:13;;;;;;;5.88;5.38;;;;;;;26.68;52.44;97645.88;5031225;28;20045;-85
2022/08/18 10:06:46;;;;;;;6.32;5.75;;;;;;;26.67;52.43;97648.91;5031043;28;20041;-85
2022/08/18 10:09:41;;;;;;;6.35;5.85;;;;;;;26.57;51.15;97649.19;5032064;28;20473;-84
2022/08/18 10:12:22;;;;;;;6.80;6.20;;;;;;;26.76;50.89;97655.09;5033035;28;20129;-88
2022/08/18 10:15:35;;;;;;;7.25;6.65;;;;;;;26.76;49.61;97657.00;5039421;28;20481;-86
2022/08/18 10:18:16;;;;;;;5.47;5.00;;;;;;;27.02;50.74;97660.47;5049527;28;20114;-86
2022/08/18 10:21:26;;;;;;;5.78;5.28;;;;;;;27.19;51.50;97657.78;5043715;28;20057;-86
2022/08/18 10:24:04;;;;;;;5.72;5.32;;;;;;;27.41;51.48;97662.22;5047991;28;20095;-86
2022/08/18 10:26:51;;;;;;;6.10;5.63;;;;;;;27.48;49.93;97667.91;5036903;28;20040;-86
2022/08/18 10:29:23;;;;;;;5.72;5.30;;;;;;;27.53;47.55;97675.03;5041334;28;20076;-86
2022/08/18 10:31:56;;;;;;;6.93;6.37;;;;;;;27.52;47.24;97672.63;5032280;28;20424;-86
2022/08/18 10:34:48;;;;;;;6.70;6.20;;;;;;;27.45;47.85;97671.22;5032029;28;20072;-88
2022/08/18 10:37:45;;;;;;;6.05;5.45;;;;;;;27.64;48.33;97665.47;5031261;28;20156;-84
2022/08/18 10:40:21;;;;;;;5.40;5.00;;;;;;;27.46;50.07;97678.19;5048042;28;20057;-85
2022/08/18 10:43:29;;;;;;;6.18;5.68;;;;;;;27.31;49.75;97684.06;5046301;28;20056;-84
2022/08/18 10:46:39;;;;;;;6.13;5.53;;;;;;;27.33;47.70;97676.47;5030493;28;20084;-85
2022/08/18 10:49:24;;;;;;;6.88;6.28;;;;;;;27.12;47.94;97678.22;5030386;28;20429;-87
2022/08/18 10:52:22;;;;;;;6.05;5.65;;;;;;;27.02;47.98;97675.81;5036775;28;20053;-84
2022/08/18 10:55:10;;;;;;;6.03;5.53;;;;;;;27.11;50.36;97687.38;5049900;28;20053;-84
2022/08/18 10:58:37;;;;;;;5.90;5.43;;;;;;;27.09;48.54;97676.94;5050576;28;20053;-83
2022/08/18 11:01:25;;;;;;;5.53;5.13;;;;;;;27.15;51.11;97666.81;5066891;28;20115;-85
2022/08/18 11:04:07;;;;;;;5.93;5.43;;;;;;;27.39;49.33;97669.78;5049237;28;20044;-85
2022/08/18 11:06:47;;;;;;;6.53;6.03;;;;;;;27.38;49.17;97665.53;5046916;28;20041;-84
2022/08/18 11:09:25;;;;;;;6.05;5.55;;;;;;;27.49;49.55;97657.91;5032097;28;20041;-84
2022/08/18 11:11:57;;;;;;;6.75;6.15;;;;;;;27.43;48.15;97659.97;5033309;28;20041;-84
2022/08/18 11:15:40;;;;;;;5.68;5.20;;;;;;;27.51;48.70;97654.88;5054397;28;20056;-86
2022/08/18 11:18:39;;;;;;;5.60;5.20;;;;;;;27.52;47.08;97640.31;5023634;28;20049;-88
2022/08/18 11:21:36;;;;;;;6.25;5.75;;;;;;;27.54;48.26;97632.72;5036345;28;20555;-87
2022/08/18 11:24:23;;;;;;;5.65;5.25;;;;;;;27.73;47.79;97636.63;5066657;28;20072;-86
2022/08/18 11:27:02;;;;;;;6.90;6.30;;;;;;;27.76;47.95;97632.50;5052011;28;20045;-84
2022/08/18 11:29:40;;;;;;;6.43;5.93;;;;;;;27.88;46.63;97619.13;5051705;28;20492;-83
2022/08/18 11:32:22;;;;;;;5.95;5.45;;;;;;;27.96;46.23;97612.13;5067527;28;20049;-84
2022/08/18 11:35:09;;;;;;;5.68;5.18;;;;;;;28.20;48.78;97589.97;5051914;28;20075;-83
2022/08/18 11:38:01;;;;;;;4.95;4.65;;;;;;;28.35;47.16;97575.13;5055555;28;20060;-83
2022/08/18 11:40:41;;;;;;;5.40;5.00;;;;;;;28.44;47.05;97576.66;5030443;28;20053;-86
2022/08/18 11:43:36;;;;;;;5.97;5.53;;;;;;;28.26;44.47;97572.47;5030657;28;20080;-85
2022/08/18 11:46:31;;;;;;;5.05;4.75;;;;;;;28.13;47.00;97573.50;5050001;28;20131;-83
2022/08/18 11:49:27;;;;;;;6.25;5.75;;;;;;;28.27;46.54;97595.63;5049369;28;20048;-83
2022/08/18 11:52:01;;;;;;;6.78;6.28;;;;;;;28.19;47.46;97588.41;5047938;28;20488;-83
2022/08/18 11:54:50;;;;;;;6.28;5.78;;;;;;;28.19;45.17;97591.09;5046566;28;20057;-85
2022/08/18 11:57:48;;;;;;;5.63;5.22;;;;;;;28.15;48.40;97590.16;5044589;28;20091;-83
2022/08/18 12:00:54;;;;;;;5.75;5.35;;;;;;;28.08;47.20;97592.56;5017809;28;20099;-84
2022/08/18 12:03:41;;;;;;;6.00;5.60;;;;;;;28.07;46.42;97601.75;5046054;28;20041;-83
2022/08/18 12:06:30;;;;;;;5.95;5.45;;;;;;;28.08;46.39;97592.56;5045722;28;20091;-83
2022/08/18 12:09:20;;;;;;;4.68;4.38;;;;;;;28.09;46.56;97597.63;5050725;28;20082;-83
2022/08/18 12:12:17;;;;;;;6.45;5.95;;;;;;;27.95;47.21;97594.41;5040948;28;20079;-85
2022/08/18 12:15:12;;;;;;;5.70;5.20;;;;;;;28.21;47.88;97581.53;5050547;28;20443;-83
2022/08/18 12:17:50;;;;;;;5.90;5.50;;;;;;;28.25;47.04;97576.31;5047631;28;20053;-86
2022/08/18 12:20:20;;;;;;;5.85;5.45;;;;;;;28.37;46.69;97568.31;5014586;28;20046;-84
2022/08/18 12:22:48;;;;;;;5.85;5.45;;;;;;;28.47;47.23;97577.91;5034179;28;20377;-84
2022/08/18 12:25:18;;;;;;;5.28;4.80;;;;;;;28.53;47.92;97587.38;5043666;28;20073;-86
2022/08/18 12:28:05;;;;;;;5.15;4.85;;;;;;;28.53;46.11;97582.78;5038413;28;20044;-83
2022/08/18 12:30:52;;;;;;;5.45;5.05;;;;;;;28.48;44.99;97585.66;5055838;28;20080;-83
2022/08/18 12:33:23;;;;;;;6.82;6.32;;;;;;;28.35;46.25;97594.00;5054616;28;20467;-83
2022/08/18 12:36:12;;;;;;;6.03;5.53;;;;;;;28.20;46.61;97584.56;5054010;28;20051;-87
2022/08/18 12:38:44;;;;;;;6.53;5.93;;;;;;;28.08;45.21;97565.63;5053409;28;20045;-84
2022/08/18 12:41:17;;;;;;;4.95;4.55;;;;;;;28.20;50.24;97565.69;5063558;28;20042;-85
2022/08/18 12:43:49;;;;;;;6.50;6.00;;;;;;;28.11;46.23;97563.03;5033381;28;20068;-86
2022/08/18 12:46:26;;;;;;;6.07;5.68;;;;;;;28.14;47.79;97558.94;5048903;28;20052;-85
2022/08/18 12:48:52;;;;;;;6.10;5.60;;;;;;;28.13;47.76;97549.22;5049932;28;20044;-84
2022/08/18 12:51:19;;;;;;;5.10;4.70;;;;;;;28.25;48.85;97549.34;5050430;28;20107;-85
2022/08/18 12:53:56;;;;;;;6.03;5.55;;;;;;;28.17;47.01;97544.78;5033187;28;20099;-84
2022/08/18 12:56:30;;;;;;;6.40;5.93;;;;;;;28.10;47.18;97528.34;5053061;28;20056;-85